createdAt,value
2022-12-12T00:01:34.264Z,64.80
2022-12-12T00:04:04.106Z,66.07
2022-12-12T00:06:33.448Z,67.34
2022-12-12T00:09:02.278Z,67.88
2022-12-12T00:11:31.864Z,68.03
2022-12-12T00:14:00.308Z,69.46
2022-12-12T00:16:30.738Z,69.63
2022-12-12T00:18:59.020Z,70.41
2022-12-12T00:21:29.402Z,70.87
2022-12-12T00:23:58.640Z,71.39
2022-12-12T00:26:30.101Z,71.28
2022-12-12T00:28:59.898Z,71.35
2022-12-12T00:31:29.193Z,71.26
2022-12-12T00:33:58.216Z,71.71
2022-12-12T00:36:29.244Z,72.53
2022-12-12T00:38:59.149Z,71.61
2022-12-12T00:41:28.187Z,70.13
2022-12-12T00:43:56.631Z,70.30
2022-12-12T00:46:26.281Z,71.05
2022-12-12T00:48:57.115Z,69.37
2022-12-12T00:51:28.037Z,66.02
2022-12-12T00:53:58.061Z,63.77
2022-12-12T00:56:29.145Z,63.66
2022-12-12T00:58:57.451Z,63.73
2022-12-12T01:01:31.778Z,63.96
2022-12-12T01:04:00.877Z,64.72
2022-12-12T01:06:29.450Z,66.01
2022-12-12T01:08:58.207Z,66.33
2022-12-12T01:11:26.589Z,65.82
2022-12-12T01:13:57.522Z,65.71
2022-12-12T01:16:25.839Z,66.65
2022-12-12T01:18:54.374Z,67.14
2022-12-12T01:21:22.877Z,67.56
2022-12-12T01:23:52.062Z,68.71
2022-12-12T01:26:23.682Z,70.04
2022-12-12T01:28:52.463Z,71.13
2022-12-12T01:31:21.497Z,72.19
2022-12-12T01:33:50.299Z,73.19
2022-12-12T01:36:21.135Z,73.72
2022-12-12T01:38:52.059Z,74.29
2022-12-12T01:41:21.990Z,73.41
2022-12-12T01:43:50.884Z,73.24
2022-12-12T01:46:22.147Z,74.10
2022-12-12T01:48:59.316Z,73.75
2022-12-12T01:51:28.499Z,73.03
2022-12-12T01:54:19.825Z,72.24
2022-12-12T01:56:49.595Z,71.44
2022-12-12T01:59:22.288Z,70.33
2022-12-12T02:01:52.191Z,68.82
2022-12-12T02:04:22.319Z,67.26
2022-12-12T02:06:51.511Z,66.49
2022-12-12T02:09:20.601Z,66.85
2022-12-12T02:11:53.181Z,68.28
2022-12-12T02:14:44.215Z,67.72
2022-12-12T02:17:42.935Z,66.56
2022-12-12T02:20:14.390Z,65.92
2022-12-12T02:23:09.207Z,66.50
2022-12-12T02:25:40.712Z,66.13
2022-12-12T02:28:28.117Z,64.62
2022-12-12T02:31:11.795Z,62.75
2022-12-12T02:33:40.226Z,62.32
2022-12-12T02:36:23.355Z,61.77
2022-12-12T02:39:06.891Z,61.87
2022-12-12T02:41:44.084Z,61.33
2022-12-12T02:44:27.416Z,61.26
2022-12-12T02:47:05.040Z,61.68
2022-12-12T02:49:41.412Z,62.94
2022-12-12T02:52:10.648Z,62.49
2022-12-12T02:54:39.167Z,62.35
2022-12-12T02:57:22.921Z,62.72
2022-12-12T02:59:58.374Z,63.60
2022-12-12T03:02:30.031Z,63.32
2022-12-12T03:05:22.899Z,64.14
2022-12-12T03:08:00.243Z,64.05
2022-12-12T03:10:42.788Z,64.21
2022-12-12T03:13:42.719Z,63.03
2022-12-12T03:16:19.257Z,62.40
2022-12-12T03:19:07.445Z,61.28
2022-12-12T03:21:49.325Z,61.05
2022-12-12T03:24:21.111Z,60.25
2022-12-12T03:26:56.695Z,60.45
2022-12-12T03:29:40.321Z,61.07
2022-12-12T03:32:15.395Z,61.22
2022-12-12T03:34:49.662Z,60.98
2022-12-12T03:37:26.095Z,60.38
2022-12-12T03:40:48.013Z,60.49
2022-12-12T03:43:21.923Z,60.64
2022-12-12T03:45:50.356Z,60.03
2022-12-12T03:48:28.620Z,60.46
2022-12-12T03:51:05.185Z,60.80
2022-12-12T03:53:45.853Z,60.78
2022-12-12T03:56:24.663Z,61.22
2022-12-12T03:59:04.114Z,61.71
2022-12-12T04:02:08.036Z,60.68
2022-12-12T04:04:58.427Z,60.43
2022-12-12T04:07:36.210Z,60.79
2022-12-12T04:10:24.674Z,61.16
2022-12-12T04:13:16.141Z,60.86
2022-12-12T04:16:03.930Z,61.12
2022-12-12T04:18:38.954Z,61.63
2022-12-12T04:21:34.790Z,61.49
2022-12-12T04:24:13.286Z,61.00
2022-12-12T04:27:12.435Z,61.03
2022-12-12T04:30:08.414Z,61.08
2022-12-12T04:32:40.804Z,60.75
2022-12-12T04:35:24.281Z,60.71
2022-12-12T04:37:58.350Z,60.86
2022-12-12T04:40:34.858Z,61.18
2022-12-12T04:43:19.674Z,60.92
2022-12-12T04:45:55.580Z,60.36
2022-12-12T04:48:37.952Z,60.22
2022-12-12T04:51:10.475Z,60.29
2022-12-12T04:53:49.057Z,60.64
2022-12-12T04:56:23.638Z,60.39
2022-12-12T04:58:52.005Z,61.63
2022-12-12T05:01:37.352Z,61.16
2022-12-12T05:04:16.244Z,62.07
2022-12-12T05:06:50.144Z,62.52
2022-12-12T05:09:19.823Z,62.86
2022-12-12T05:11:48.839Z,62.84
2022-12-12T05:14:17.909Z,62.84
2022-12-12T05:16:50.685Z,61.56
2022-12-12T05:19:18.859Z,61.41
2022-12-12T05:21:47.653Z,61.24
2022-12-12T05:24:15.822Z,61.71
2022-12-12T05:26:44.208Z,60.77
2022-12-12T05:29:12.499Z,62.43
2022-12-12T05:31:40.599Z,62.42
2022-12-12T05:34:10.379Z,62.28
2022-12-12T05:36:38.851Z,61.83
2022-12-12T05:39:07.018Z,61.07
2022-12-12T05:41:35.311Z,60.91
2022-12-12T05:44:03.577Z,62.20
2022-12-12T05:46:33.364Z,61.52
2022-12-12T05:49:01.776Z,61.32
2022-12-12T05:51:30.144Z,60.87
2022-12-12T05:53:58.523Z,60.60
2022-12-12T05:56:26.808Z,60.74
2022-12-12T05:58:55.079Z,61.30
2022-12-12T06:01:23.353Z,60.87
2022-12-12T06:03:51.679Z,60.82
2022-12-12T06:06:20.128Z,61.14
2022-12-12T06:08:48.662Z,60.83
2022-12-12T06:11:18.006Z,61.93
2022-12-12T06:13:46.781Z,62.78
2022-12-12T06:16:18.223Z,62.22
2022-12-12T06:18:56.293Z,61.96
2022-12-12T06:21:24.835Z,61.18
2022-12-12T06:23:53.299Z,61.60
2022-12-12T06:26:22.099Z,61.63
2022-12-12T06:28:50.472Z,62.08
2022-12-12T06:31:20.193Z,61.08
2022-12-12T06:33:48.885Z,61.20
2022-12-12T06:36:24.906Z,61.71
2022-12-12T06:38:55.892Z,61.66
2022-12-12T06:41:26.108Z,62.06
2022-12-12T06:43:56.059Z,61.55
2022-12-12T06:46:27.632Z,60.78
2022-12-12T06:48:57.725Z,61.66
2022-12-12T06:51:36.609Z,61.25
2022-12-12T06:54:05.653Z,61.56
2022-12-12T06:56:34.544Z,61.65
2022-12-12T06:59:03.160Z,61.14
2022-12-12T07:01:33.158Z,61.22
2022-12-12T07:04:02.299Z,61.62
2022-12-12T07:06:31.490Z,62.34
2022-12-12T07:09:00.774Z,61.96
2022-12-12T07:11:29.312Z,63.27
2022-12-12T07:14:00.768Z,63.87
2022-12-12T07:16:29.993Z,63.10
2022-12-12T07:18:59.372Z,62.62
2022-12-12T07:21:28.189Z,63.00
2022-12-12T07:23:57.538Z,63.37
2022-12-12T07:26:26.152Z,63.26
2022-12-12T07:28:55.031Z,63.18
2022-12-12T07:31:26.786Z,63.02
2022-12-12T07:33:55.297Z,62.90
2022-12-12T07:36:23.753Z,62.70
2022-12-12T07:38:53.143Z,61.92
2022-12-12T07:41:22.944Z,62.31
2022-12-12T07:43:52.682Z,61.75
2022-12-12T07:46:26.965Z,60.73
2022-12-12T07:48:55.886Z,60.57
2022-12-12T07:51:24.507Z,60.56
2022-12-12T07:53:53.168Z,60.57
2022-12-12T07:56:21.741Z,61.37
2022-12-12T07:58:51.454Z,63.20
2022-12-12T08:01:24.428Z,63.27
2022-12-12T08:03:54.679Z,61.74
2022-12-12T08:06:24.725Z,61.30
2022-12-12T08:08:54.713Z,62.41
2022-12-12T08:11:26.176Z,63.82
2022-12-12T08:13:55.146Z,64.84
2022-12-12T08:16:26.978Z,64.88
2022-12-12T08:18:57.935Z,65.05
2022-12-12T08:21:28.268Z,65.45
2022-12-12T08:24:02.517Z,66.06
2022-12-12T08:26:32.330Z,66.60
2022-12-12T08:29:00.924Z,66.43
2022-12-12T08:31:30.552Z,65.75
2022-12-12T08:34:00.876Z,66.03
2022-12-12T08:36:35.061Z,65.53
2022-12-12T08:39:10.498Z,65.73
2022-12-12T08:41:41.479Z,66.08
2022-12-12T08:44:13.600Z,66.48
2022-12-12T08:46:42.640Z,65.78
2022-12-12T08:49:12.003Z,66.21
2022-12-12T08:51:41.456Z,66.41
2022-12-12T08:54:12.670Z,66.48
2022-12-12T08:56:42.740Z,65.53
2022-12-12T08:59:11.503Z,64.83
2022-12-12T09:01:41.093Z,64.29
2022-12-12T09:04:09.694Z,64.06
2022-12-12T09:06:39.080Z,63.99
2022-12-12T09:09:08.286Z,63.00
2022-12-12T09:11:36.924Z,63.47
2022-12-12T09:14:05.468Z,63.39
2022-12-12T09:16:34.086Z,63.10
2022-12-12T09:19:02.621Z,63.05
2022-12-12T09:21:31.221Z,63.03
2022-12-12T09:24:00.021Z,62.70
2022-12-12T09:26:29.986Z,63.34
2022-12-12T09:28:58.622Z,63.93
2022-12-12T09:31:27.091Z,64.94
2022-12-12T09:33:56.194Z,65.37
2022-12-12T09:36:26.597Z,65.16
2022-12-12T09:38:56.227Z,65.05
2022-12-12T09:41:27.416Z,64.58
2022-12-12T09:44:19.819Z,65.18
2022-12-12T09:46:55.857Z,65.34
2022-12-12T09:49:53.788Z,64.49
2022-12-12T09:52:32.678Z,65.00
2022-12-12T09:55:11.921Z,65.35
2022-12-12T09:57:51.672Z,65.01
2022-12-12T10:00:21.407Z,64.45
2022-12-12T10:03:09.590Z,65.25
2022-12-12T10:05:42.377Z,66.48
2022-12-12T10:08:34.784Z,66.99
2022-12-12T10:11:33.771Z,67.17
2022-12-12T10:14:08.009Z,66.85
2022-12-12T10:16:39.709Z,66.71
2022-12-12T10:19:24.427Z,67.08
2022-12-12T10:22:00.155Z,67.28
2022-12-12T10:24:48.212Z,67.99
2022-12-12T10:27:18.354Z,68.10
2022-12-12T10:29:49.856Z,68.47
2022-12-12T10:32:45.759Z,68.89
2022-12-12T10:35:26.990Z,68.21
2022-12-12T10:38:12.786Z,68.33
2022-12-12T10:41:04.770Z,68.28
2022-12-12T10:43:46.657Z,68.98
2022-12-12T10:46:37.963Z,69.28
2022-12-12T10:49:19.230Z,69.20
2022-12-12T10:51:51.037Z,68.80
2022-12-12T10:54:25.607Z,67.98
2022-12-12T10:57:22.284Z,67.92
2022-12-12T10:59:54.073Z,66.95
2022-12-12T11:02:38.693Z,66.63
2022-12-12T11:05:22.396Z,66.18
2022-12-12T11:08:02.912Z,66.53
2022-12-12T11:10:37.885Z,66.98
2022-12-12T11:13:10.009Z,66.54
2022-12-12T11:15:47.496Z,66.71
2022-12-12T11:18:21.549Z,66.88
2022-12-12T11:20:55.769Z,67.21
2022-12-12T11:23:27.213Z,67.23
2022-12-12T11:26:02.599Z,66.98
2022-12-12T11:28:36.892Z,67.02
2022-12-12T11:31:09.864Z,66.95
2022-12-12T11:33:44.907Z,67.46
2022-12-12T11:36:19.554Z,67.99
2022-12-12T11:38:53.443Z,67.50
2022-12-12T11:41:22.640Z,66.38
2022-12-12T11:43:51.033Z,66.00
2022-12-12T11:46:30.674Z,64.89
2022-12-12T11:49:05.406Z,64.00
2022-12-12T11:51:38.210Z,63.56
2022-12-12T11:54:21.057Z,63.81
2022-12-12T11:56:58.115Z,64.04
2022-12-12T11:59:35.906Z,64.31
2022-12-12T12:02:41.580Z,64.50
2022-12-12T12:05:19.580Z,64.52
2022-12-12T12:07:48.079Z,64.44
2022-12-12T12:10:41.430Z,64.06
2022-12-12T12:13:18.831Z,64.32
2022-12-12T12:16:01.009Z,63.99
2022-12-12T12:18:46.669Z,64.43
2022-12-12T12:21:54.207Z,64.56
2022-12-12T12:25:17.271Z,63.01
2022-12-12T12:27:46.466Z,64.53
2022-12-12T12:30:22.740Z,65.53
2022-12-12T12:33:12.615Z,64.61
2022-12-12T12:36:10.397Z,62.89
2022-12-12T12:38:57.965Z,60.39
2022-12-12T12:41:42.795Z,59.62
2022-12-12T12:44:48.139Z,62.38
2022-12-12T12:47:33.498Z,63.03
2022-12-12T12:50:56.146Z,60.71
2022-12-12T12:53:38.275Z,59.29
2022-12-12T12:56:25.248Z,61.21
2022-12-12T12:59:01.560Z,64.42
2022-12-12T13:01:51.988Z,63.58
2022-12-12T13:04:41.857Z,61.53
2022-12-12T13:07:33.833Z,60.87
2022-12-12T13:10:18.763Z,60.02
2022-12-12T13:13:10.190Z,60.05
2022-12-12T13:15:50.736Z,59.73
2022-12-12T13:18:19.140Z,59.76
2022-12-12T13:20:58.987Z,59.57
2022-12-12T13:23:47.662Z,62.29
2022-12-12T13:26:42.340Z,64.69
2022-12-12T13:29:32.226Z,64.33
2022-12-12T13:32:16.447Z,61.89
2022-12-12T13:34:49.457Z,60.29
2022-12-12T13:37:22.547Z,59.44
2022-12-12T13:40:06.838Z,61.20
2022-12-12T13:43:10.095Z,63.72
2022-12-12T13:45:43.286Z,62.24
2022-12-12T13:48:27.465Z,60.97
2022-12-12T13:51:31.678Z,59.80
2022-12-12T13:54:13.138Z,59.90
2022-12-12T13:56:58.069Z,60.07
2022-12-12T13:59:27.709Z,60.09
2022-12-12T14:02:02.493Z,59.43
2022-12-12T14:04:34.735Z,61.14
2022-12-12T14:07:22.474Z,63.83
2022-12-12T14:09:57.037Z,62.75
2022-12-12T14:12:34.000Z,60.73
2022-12-12T14:15:18.656Z,59.57
2022-12-12T14:17:59.147Z,59.20
2022-12-12T14:20:35.276Z,62.10
2022-12-12T14:23:09.846Z,63.85
2022-12-12T14:25:40.763Z,63.03
2022-12-12T14:28:21.619Z,61.86
2022-12-12T14:31:16.290Z,61.76
2022-12-12T14:34:20.784Z,61.37
2022-12-12T14:37:17.833Z,60.55
2022-12-12T14:39:59.136Z,59.34
2022-12-12T14:43:19.325Z,62.26
2022-12-12T14:45:29.968Z,64.29
2022-12-12T14:48:20.449Z,62.91
2022-12-12T14:50:58.164Z,61.25
2022-12-12T14:53:40.226Z,60.65
2022-12-12T14:56:19.296Z,60.49
2022-12-12T14:59:19.539Z,59.68
2022-12-12T15:02:00.015Z,60.76
2022-12-12T15:04:36.078Z,63.99
2022-12-12T15:07:07.600Z,63.37
2022-12-12T15:09:39.150Z,61.53
2022-12-12T15:12:14.700Z,60.60
2022-12-12T15:14:49.753Z,60.60
2022-12-12T15:17:32.283Z,60.40
2022-12-12T15:20:10.931Z,59.42
2022-12-12T15:22:59.194Z,61.32
2022-12-12T15:25:33.142Z,64.08
2022-12-12T15:28:03.370Z,63.46
2022-12-12T15:30:37.667Z,60.83
2022-12-12T15:36:46.524Z,61.80
2022-12-12T15:39:16.765Z,63.74
2022-12-12T15:41:46.066Z,61.81
2022-12-12T15:44:20.420Z,60.20
2022-12-12T15:46:51.214Z,59.37
2022-12-12T15:49:37.942Z,60.40
2022-12-12T15:52:25.272Z,63.69
2022-12-12T15:54:59.170Z,65.36
2022-12-12T15:57:56.628Z,66.15
2022-12-12T16:00:39.355Z,66.79
2022-12-12T16:03:11.430Z,67.33
2022-12-12T16:05:41.550Z,67.69
2022-12-12T16:08:34.642Z,67.80
2022-12-12T16:11:41.891Z,68.53
2022-12-12T16:14:43.304Z,68.85
2022-12-12T16:17:24.421Z,68.92
2022-12-12T16:19:58.199Z,69.10
2022-12-12T16:22:49.568Z,69.34
2022-12-12T16:25:32.984Z,69.25
2022-12-12T16:28:25.820Z,69.46
2022-12-12T16:31:05.698Z,69.59
2022-12-12T16:33:37.108Z,69.60
2022-12-12T16:36:13.566Z,69.44
2022-12-12T16:38:45.268Z,67.04
2022-12-12T16:41:19.521Z,63.62
2022-12-12T16:43:49.802Z,60.96
2022-12-12T16:46:24.244Z,60.54
2022-12-12T16:48:53.599Z,60.13
2022-12-12T16:51:29.171Z,59.54
2022-12-12T16:53:59.443Z,59.68
2022-12-12T16:56:28.572Z,62.08
2022-12-12T16:58:58.346Z,63.19
2022-12-12T17:01:29.218Z,60.96
2022-12-12T17:03:59.756Z,59.37
2022-12-12T17:06:30.707Z,60.65
2022-12-12T17:09:02.629Z,63.45
2022-12-12T17:11:33.463Z,64.98
2022-12-12T17:14:04.524Z,66.01
2022-12-12T17:16:35.296Z,66.12
2022-12-12T17:19:04.843Z,66.58
2022-12-12T17:21:34.486Z,66.93
2022-12-12T17:24:06.398Z,65.91
2022-12-12T17:26:37.791Z,64.19
2022-12-12T17:29:08.646Z,61.18
2022-12-12T17:31:37.864Z,59.46
2022-12-12T17:34:07.660Z,59.51
2022-12-12T17:36:36.343Z,62.56
2022-12-12T17:39:05.746Z,63.63
2022-12-12T17:41:35.081Z,61.11
2022-12-12T17:44:05.358Z,59.31
2022-12-12T17:46:36.693Z,58.97
2022-12-12T17:49:07.802Z,62.06
2022-12-12T17:51:39.163Z,64.01
2022-12-12T17:54:13.317Z,62.39
2022-12-12T17:56:46.135Z,60.90
2022-12-12T17:59:16.889Z,60.53
2022-12-12T18:01:54.163Z,59.58
2022-12-12T18:04:28.311Z,61.21
2022-12-12T18:06:59.155Z,64.42
2022-12-12T18:09:31.276Z,62.38
2022-12-12T18:12:00.016Z,60.99
2022-12-12T18:14:30.364Z,60.40
2022-12-12T18:16:59.911Z,59.71
2022-12-12T18:19:30.279Z,59.71
2022-12-12T18:22:01.514Z,62.27
2022-12-12T18:24:33.461Z,64.46
2022-12-12T18:27:04.148Z,63.48
2022-12-12T18:29:33.412Z,61.88
2022-12-12T18:32:02.936Z,60.77
2022-12-12T18:34:34.716Z,60.95
2022-12-12T18:37:03.708Z,60.61
2022-12-12T18:39:32.329Z,60.30
2022-12-12T18:42:02.252Z,59.63
2022-12-12T18:44:31.441Z,62.18
2022-12-12T18:47:00.664Z,64.01
2022-12-12T18:49:29.447Z,63.26
2022-12-12T18:51:58.574Z,61.65
2022-12-12T18:54:29.260Z,61.23
2022-12-12T18:56:57.828Z,60.70
2022-12-12T18:59:26.436Z,60.77
2022-12-12T19:01:55.270Z,61.12
2022-12-12T19:04:25.426Z,61.65
2022-12-12T19:06:54.249Z,61.42
2022-12-12T19:09:23.148Z,61.19
2022-12-12T19:11:58.253Z,60.75
2022-12-12T19:14:45.972Z,60.80
2022-12-12T19:17:25.746Z,61.04
2022-12-12T19:19:55.480Z,61.20
2022-12-12T19:22:44.433Z,61.47
2022-12-12T19:25:16.687Z,61.54
2022-12-12T19:27:46.452Z,60.47
2022-12-12T19:30:19.836Z,60.43
2022-12-12T19:32:49.442Z,60.75
2022-12-12T19:35:21.191Z,60.46
2022-12-12T19:37:50.102Z,60.29
2022-12-12T19:40:19.299Z,60.56
2022-12-12T19:42:47.875Z,60.52
2022-12-12T19:45:16.882Z,60.94
2022-12-12T19:47:45.769Z,60.88
2022-12-12T19:50:14.433Z,60.89
2022-12-12T19:52:43.855Z,61.45
2022-12-12T19:55:12.480Z,60.86
2022-12-12T19:57:41.644Z,60.52
2022-12-12T20:00:12.196Z,59.81
2022-12-12T20:02:41.109Z,60.34
2022-12-12T20:05:11.261Z,60.80
2022-12-12T20:07:40.187Z,60.86
2022-12-12T20:10:09.708Z,60.65
2022-12-12T20:12:46.225Z,59.48
2022-12-12T20:15:20.643Z,61.53
2022-12-12T20:17:49.295Z,63.46
2022-12-12T20:20:18.083Z,61.67
2022-12-12T20:22:47.008Z,60.68
2022-12-12T20:25:15.940Z,60.32
2022-12-12T20:27:44.852Z,59.27
2022-12-12T20:30:13.887Z,60.43
2022-12-12T20:32:43.572Z,63.28
2022-12-12T20:35:13.284Z,63.11
2022-12-12T20:37:41.973Z,60.90
2022-12-12T20:40:11.384Z,59.69
2022-12-12T20:42:40.515Z,59.84
2022-12-12T20:45:10.636Z,62.20
2022-12-12T20:47:40.005Z,63.71
2022-12-12T20:50:09.016Z,62.41
2022-12-12T20:52:40.352Z,61.38
2022-12-12T20:55:10.355Z,60.87
2022-12-12T20:57:39.483Z,61.25
2022-12-12T21:00:09.621Z,61.27
2022-12-12T21:02:40.259Z,61.20
2022-12-12T21:05:12.257Z,61.82
2022-12-12T21:07:42.412Z,61.81
2022-12-12T21:10:12.457Z,61.33
2022-12-12T21:12:42.998Z,60.52
2022-12-12T21:15:12.402Z,60.06
2022-12-12T21:17:41.364Z,60.32
2022-12-12T21:20:13.664Z,59.87
2022-12-12T21:22:43.455Z,59.38
2022-12-12T21:25:12.404Z,60.99
2022-12-12T21:27:42.064Z,63.71
2022-12-12T21:30:12.454Z,64.02
2022-12-12T21:32:41.591Z,62.69
2022-12-12T21:35:11.459Z,61.43
2022-12-12T21:37:41.412Z,60.24
2022-12-12T21:40:14.407Z,59.71
2022-12-12T21:42:43.088Z,62.43
2022-12-12T21:45:11.918Z,64.04
2022-12-12T21:47:41.086Z,63.84
2022-12-12T21:50:10.281Z,63.96
2022-12-12T21:52:39.186Z,62.70
2022-12-12T21:55:08.282Z,61.18
2022-12-12T21:57:36.760Z,60.48
2022-12-12T22:00:06.069Z,60.45
2022-12-12T22:02:42.208Z,60.06
2022-12-12T22:05:12.293Z,60.17
2022-12-12T22:07:40.988Z,59.74
2022-12-12T22:10:11.038Z,59.58
2022-12-12T22:12:41.080Z,61.63
2022-12-12T22:15:09.898Z,64.39
2022-12-12T22:17:38.450Z,65.24
2022-12-12T22:20:07.967Z,65.33
2022-12-12T22:22:36.961Z,65.21
2022-12-12T22:25:06.165Z,64.04
2022-12-12T22:27:34.753Z,63.11
2022-12-12T22:30:03.542Z,62.97
2022-12-12T22:32:31.812Z,62.93
2022-12-12T22:35:00.092Z,63.00
2022-12-12T22:37:28.685Z,63.15
2022-12-12T22:39:56.952Z,63.59
2022-12-12T22:42:25.653Z,63.88
2022-12-12T22:44:53.931Z,64.02
2022-12-12T22:47:23.895Z,64.38
2022-12-12T22:49:52.225Z,63.85
2022-12-12T22:52:20.502Z,62.70
2022-12-12T22:54:48.789Z,61.26
2022-12-12T22:57:17.054Z,59.68
2022-12-12T22:59:45.858Z,59.21
2022-12-12T23:02:17.731Z,62.03
2022-12-12T23:04:52.266Z,64.62
2022-12-12T23:07:21.162Z,65.18
2022-12-12T23:09:53.135Z,65.46
2022-12-12T23:12:24.528Z,65.55
2022-12-12T23:14:53.966Z,64.79
2022-12-12T23:17:26.026Z,63.82
2022-12-12T23:19:55.765Z,62.34
2022-12-12T23:22:25.054Z,60.86
2022-12-12T23:24:53.847Z,59.00
2022-12-12T23:27:22.175Z,60.61
2022-12-12T23:29:50.601Z,63.66
2022-12-12T23:32:18.987Z,65.37
2022-12-12T23:34:47.786Z,66.50
2022-12-12T23:37:16.991Z,65.76
2022-12-12T23:39:45.758Z,63.34
2022-12-12T23:42:14.355Z,61.19
2022-12-12T23:44:43.450Z,61.47
2022-12-12T23:47:11.923Z,61.86
2022-12-12T23:49:40.724Z,61.87
2022-12-12T23:52:08.998Z,61.76
2022-12-12T23:54:37.271Z,61.57
2022-12-12T23:57:06.881Z,61.72
2022-12-12T23:59:35.578Z,61.73
